sensor_id;sensor_type;location;lat;lon;timestamp;temperature;humidity
2042;DHT22;1026;51.460;7.252;2022-12-07T00:00:49;5.30;92.60
2042;DHT22;1026;51.460;7.252;2022-12-07T00:03:17;5.30;92.70
2042;DHT22;1026;51.460;7.252;2022-12-07T00:05:43;5.30;92.60
2042;DHT22;1026;51.460;7.252;2022-12-07T00:08:09;5.30;92.70
2042;DHT22;1026;51.460;7.252;2022-12-07T00:10:34;5.30;92.70
2042;DHT22;1026;51.460;7.252;2022-12-07T00:13:00;5.30;92.70
2042;DHT22;1026;51.460;7.252;2022-12-07T00:15:29;5.30;92.70
2042;DHT22;1026;51.460;7.252;2022-12-07T00:17:55;5.20;92.60
2042;DHT22;1026;51.460;7.252;2022-12-07T00:20:20;5.30;92.70
2042;DHT22;1026;51.460;7.252;2022-12-07T00:22:57;5.30;92.70
2042;DHT22;1026;51.460;7.252;2022-12-07T00:25:23;5.30;92.60
2042;DHT22;1026;51.460;7.252;2022-12-07T00:27:49;5.30;92.70
2042;DHT22;1026;51.460;7.252;2022-12-07T00:30:24;5.30;92.70
2042;DHT22;1026;51.460;7.252;2022-12-07T00:32:52;5.30;92.60
2042;DHT22;1026;51.460;7.252;2022-12-07T00:35:18;5.30;92.60
2042;DHT22;1026;51.460;7.252;2022-12-07T00:37:47;5.30;92.70
2042;DHT22;1026;51.460;7.252;2022-12-07T00:40:15;5.30;92.60
2042;DHT22;1026;51.460;7.252;2022-12-07T00:42:41;5.30;93.00
2042;DHT22;1026;51.460;7.252;2022-12-07T00:45:07;5.20;92.60
2042;DHT22;1026;51.460;7.252;2022-12-07T00:47:33;5.30;92.70
2042;DHT22;1026;51.460;7.252;2022-12-07T00:49:59;5.30;92.70
2042;DHT22;1026;51.460;7.252;2022-12-07T00:52:25;5.30;92.70
2042;DHT22;1026;51.460;7.252;2022-12-07T00:54:51;5.30;92.70
2042;DHT22;1026;51.460;7.252;2022-12-07T00:57:16;5.30;92.70
2042;DHT22;1026;51.460;7.252;2022-12-07T00:59:42;5.30;92.70
2042;DHT22;1026;51.460;7.252;2022-12-07T01:02:08;5.30;92.70
2042;DHT22;1026;51.460;7.252;2022-12-07T01:04:34;5.30;92.60
2042;DHT22;1026;51.460;7.252;2022-12-07T01:07:00;5.40;92.70
2042;DHT22;1026;51.460;7.252;2022-12-07T01:09:25;5.30;92.60
2042;DHT22;1026;51.460;7.252;2022-12-07T01:11:51;5.40;92.70
2042;DHT22;1026;51.460;7.252;2022-12-07T01:14:18;5.40;92.60
2042;DHT22;1026;51.460;7.252;2022-12-07T01:16:44;5.40;92.70
2042;DHT22;1026;51.460;7.252;2022-12-07T01:19:09;5.40;92.70
2042;DHT22;1026;51.460;7.252;2022-12-07T01:21:35;5.40;92.70
2042;DHT22;1026;51.460;7.252;2022-12-07T01:24:05;5.40;92.70
2042;DHT22;1026;51.460;7.252;2022-12-07T01:26:31;5.40;92.70
2042;DHT22;1026;51.460;7.252;2022-12-07T01:28:56;5.40;92.60
2042;DHT22;1026;51.460;7.252;2022-12-07T01:31:25;5.40;92.70
2042;DHT22;1026;51.460;7.252;2022-12-07T01:33:54;5.30;92.60
2042;DHT22;1026;51.460;7.252;2022-12-07T01:36:24;5.40;92.70
2042;DHT22;1026;51.460;7.252;2022-12-07T01:38:53;5.40;92.70
2042;DHT22;1026;51.460;7.252;2022-12-07T01:41:20;5.40;92.70
2042;DHT22;1026;51.460;7.252;2022-12-07T01:44:10;5.40;92.70
2042;DHT22;1026;51.460;7.252;2022-12-07T01:46:37;5.40;92.70
2042;DHT22;1026;51.460;7.252;2022-12-07T01:49:05;5.40;92.70
2042;DHT22;1026;51.460;7.252;2022-12-07T01:51:31;5.40;92.70
2042;DHT22;1026;51.460;7.252;2022-12-07T01:53:58;5.40;92.70
2042;DHT22;1026;51.460;7.252;2022-12-07T01:56:26;5.40;92.70
2042;DHT22;1026;51.460;7.252;2022-12-07T01:58:54;5.40;92.70
2042;DHT22;1026;51.460;7.252;2022-12-07T02:01:23;5.40;92.70
2042;DHT22;1026;51.460;7.252;2022-12-07T02:03:49;5.40;92.70
2042;DHT22;1026;51.460;7.252;2022-12-07T02:06:22;5.40;92.70
2042;DHT22;1026;51.460;7.252;2022-12-07T02:08:53;5.40;92.70
2042;DHT22;1026;51.460;7.252;2022-12-07T02:11:19;5.30;92.60
2042;DHT22;1026;51.460;7.252;2022-12-07T02:13:46;5.40;92.70
2042;DHT22;1026;51.460;7.252;2022-12-07T02:21:43;5.40;92.70
2042;DHT22;1026;51.460;7.252;2022-12-07T02:27:24;5.40;92.80
2042;DHT22;1026;51.460;7.252;2022-12-07T02:30:03;5.40;92.70
2042;DHT22;1026;51.460;7.252;2022-12-07T02:32:48;5.40;92.70
2042;DHT22;1026;51.460;7.252;2022-12-07T02:35:33;5.40;92.70
2042;DHT22;1026;51.460;7.252;2022-12-07T02:38:11;5.40;92.70
2042;DHT22;1026;51.460;7.252;2022-12-07T02:40:55;5.40;92.80
2042;DHT22;1026;51.460;7.252;2022-12-07T02:43:26;5.40;92.70
2042;DHT22;1026;51.460;7.252;2022-12-07T02:46:01;5.40;92.70
2042;DHT22;1026;51.460;7.252;2022-12-07T02:48:37;5.50;92.80
2042;DHT22;1026;51.460;7.252;2022-12-07T02:51:04;5.50;92.80
2042;DHT22;1026;51.460;7.252;2022-12-07T02:53:33;5.50;92.80
2042;DHT22;1026;51.460;7.252;2022-12-07T02:59:15;5.50;92.70
2042;DHT22;1026;51.460;7.252;2022-12-07T03:04:44;5.50;92.80
2042;DHT22;1026;51.460;7.252;2022-12-07T03:07:24;5.50;92.80
2042;DHT22;1026;51.460;7.252;2022-12-07T03:12:36;5.50;92.80
2042;DHT22;1026;51.460;7.252;2022-12-07T03:15:09;5.50;92.80
2042;DHT22;1026;51.460;7.252;2022-12-07T03:17:38;5.50;92.80
2042;DHT22;1026;51.460;7.252;2022-12-07T03:20:08;5.50;92.80
2042;DHT22;1026;51.460;7.252;2022-12-07T03:22:35;5.50;92.80
2042;DHT22;1026;51.460;7.252;2022-12-07T03:25:07;5.40;92.70
2042;DHT22;1026;51.460;7.252;2022-12-07T03:27:40;5.50;92.80
2042;DHT22;1026;51.460;7.252;2022-12-07T03:30:13;5.50;92.70
2042;DHT22;1026;51.460;7.252;2022-12-07T03:33:15;5.50;92.80
2042;DHT22;1026;51.460;7.252;2022-12-07T03:35:52;5.40;92.70
2042;DHT22;1026;51.460;7.252;2022-12-07T03:38:25;5.50;92.80
2042;DHT22;1026;51.460;7.252;2022-12-07T03:41:09;5.50;92.80
2042;DHT22;1026;51.460;7.252;2022-12-07T03:43:37;5.40;92.70
2042;DHT22;1026;51.460;7.252;2022-12-07T03:48:36;5.50;92.80
2042;DHT22;1026;51.460;7.252;2022-12-07T03:54:10;5.50;92.80
2042;DHT22;1026;51.460;7.252;2022-12-07T03:56:36;5.50;92.80
2042;DHT22;1026;51.460;7.252;2022-12-07T03:59:02;5.50;92.80
2042;DHT22;1026;51.460;7.252;2022-12-07T04:01:28;5.50;92.80
2042;DHT22;1026;51.460;7.252;2022-12-07T04:03:54;5.50;92.80
2042;DHT22;1026;51.460;7.252;2022-12-07T04:06:19;5.50;92.80
2042;DHT22;1026;51.460;7.252;2022-12-07T04:08:45;5.50;92.80
2042;DHT22;1026;51.460;7.252;2022-12-07T04:11:11;5.40;92.70
2042;DHT22;1026;51.460;7.252;2022-12-07T04:13:36;5.50;92.80
2042;DHT22;1026;51.460;7.252;2022-12-07T04:16:22;5.40;92.70
2042;DHT22;1026;51.460;7.252;2022-12-07T04:18:57;5.50;92.80
2042;DHT22;1026;51.460;7.252;2022-12-07T04:21:23;5.50;92.80
2042;DHT22;1026;51.460;7.252;2022-12-07T04:23:48;5.50;92.80
2042;DHT22;1026;51.460;7.252;2022-12-07T04:26:14;5.50;92.80
2042;DHT22;1026;51.460;7.252;2022-12-07T04:28:40;5.50;92.80
2042;DHT22;1026;51.460;7.252;2022-12-07T04:31:11;5.40;92.70
2042;DHT22;1026;51.460;7.252;2022-12-07T04:33:37;5.50;92.80
2042;DHT22;1026;51.460;7.252;2022-12-07T04:36:03;5.50;92.80
2042;DHT22;1026;51.460;7.252;2022-12-07T04:38:28;5.50;92.80
2042;DHT22;1026;51.460;7.252;2022-12-07T04:40:54;5.50;92.80
2042;DHT22;1026;51.460;7.252;2022-12-07T04:43:20;5.50;92.80
2042;DHT22;1026;51.460;7.252;2022-12-07T04:45:47;5.50;92.80
2042;DHT22;1026;51.460;7.252;2022-12-07T04:48:13;5.50;92.80
2042;DHT22;1026;51.460;7.252;2022-12-07T04:50:38;5.50;92.80
2042;DHT22;1026;51.460;7.252;2022-12-07T04:53:04;5.50;92.80
2042;DHT22;1026;51.460;7.252;2022-12-07T04:55:30;5.50;92.80
2042;DHT22;1026;51.460;7.252;2022-12-07T04:57:55;5.50;92.80
2042;DHT22;1026;51.460;7.252;2022-12-07T05:00:21;5.50;92.80
2042;DHT22;1026;51.460;7.252;2022-12-07T05:02:47;5.50;92.80
2042;DHT22;1026;51.460;7.252;2022-12-07T05:05:12;5.50;92.80
2042;DHT22;1026;51.460;7.252;2022-12-07T05:07:41;5.50;92.80
2042;DHT22;1026;51.460;7.252;2022-12-07T05:10:07;5.50;92.80
2042;DHT22;1026;51.460;7.252;2022-12-07T05:12:33;5.50;92.80
2042;DHT22;1026;51.460;7.252;2022-12-07T05:15:04;5.40;92.80
2042;DHT22;1026;51.460;7.252;2022-12-07T05:17:30;5.50;92.80
2042;DHT22;1026;51.460;7.252;2022-12-07T05:19:55;5.50;92.80
2042;DHT22;1026;51.460;7.252;2022-12-07T05:22:21;5.50;92.80
2042;DHT22;1026;51.460;7.252;2022-12-07T05:24:47;5.50;92.80
2042;DHT22;1026;51.460;7.252;2022-12-07T05:27:12;5.50;92.80
2042;DHT22;1026;51.460;7.252;2022-12-07T05:29:38;5.50;92.80
2042;DHT22;1026;51.460;7.252;2022-12-07T05:32:05;5.50;92.80
2042;DHT22;1026;51.460;7.252;2022-12-07T05:34:30;5.50;92.80
2042;DHT22;1026;51.460;7.252;2022-12-07T05:36:56;5.50;92.80
2042;DHT22;1026;51.460;7.252;2022-12-07T05:39:21;5.50;92.80
2042;DHT22;1026;51.460;7.252;2022-12-07T05:41:47;5.50;92.80
2042;DHT22;1026;51.460;7.252;2022-12-07T05:44:28;5.50;92.80
2042;DHT22;1026;51.460;7.252;2022-12-07T05:46:54;5.50;92.80
2042;DHT22;1026;51.460;7.252;2022-12-07T05:49:20;5.50;92.80
2042;DHT22;1026;51.460;7.252;2022-12-07T05:51:45;5.40;92.80
2042;DHT22;1026;51.460;7.252;2022-12-07T05:54:11;5.40;92.80
2042;DHT22;1026;51.460;7.252;2022-12-07T05:56:37;5.40;92.80
2042;DHT22;1026;51.460;7.252;2022-12-07T05:59:02;5.40;92.80
2042;DHT22;1026;51.460;7.252;2022-12-07T06:01:43;5.50;92.90
2042;DHT22;1026;51.460;7.252;2022-12-07T06:04:09;5.40;92.80
2042;DHT22;1026;51.460;7.252;2022-12-07T06:06:35;5.50;92.80
2042;DHT22;1026;51.460;7.252;2022-12-07T06:09:01;5.40;92.80
2042;DHT22;1026;51.460;7.252;2022-12-07T06:11:26;5.40;92.80
2042;DHT22;1026;51.460;7.252;2022-12-07T06:14:07;5.40;92.80
2042;DHT22;1026;51.460;7.252;2022-12-07T06:16:33;5.40;92.80
2042;DHT22;1026;51.460;7.252;2022-12-07T06:19:04;5.50;92.80
2042;DHT22;1026;51.460;7.252;2022-12-07T06:21:29;5.40;92.80
2042;DHT22;1026;51.460;7.252;2022-12-07T06:23:55;5.50;92.80
2042;DHT22;1026;51.460;7.252;2022-12-07T06:26:21;5.40;92.80
2042;DHT22;1026;51.460;7.252;2022-12-07T06:28:47;5.50;92.80
2042;DHT22;1026;51.460;7.252;2022-12-07T06:31:13;5.50;92.80
2042;DHT22;1026;51.460;7.252;2022-12-07T06:33:39;5.50;92.80
2042;DHT22;1026;51.460;7.252;2022-12-07T06:36:04;5.40;92.80
2042;DHT22;1026;51.460;7.252;2022-12-07T06:38:30;5.40;93.10
2042;DHT22;1026;51.460;7.252;2022-12-07T06:40:56;5.50;92.90
2042;DHT22;1026;51.460;7.252;2022-12-07T06:43:21;5.40;92.80
2042;DHT22;1026;51.460;7.252;2022-12-07T06:45:47;5.40;92.80
2042;DHT22;1026;51.460;7.252;2022-12-07T06:48:13;5.40;92.80
2042;DHT22;1026;51.460;7.252;2022-12-07T06:50:39;5.40;92.80
2042;DHT22;1026;51.460;7.252;2022-12-07T06:53:05;5.40;92.80
2042;DHT22;1026;51.460;7.252;2022-12-07T06:55:33;5.40;92.80
2042;DHT22;1026;51.460;7.252;2022-12-07T06:57:59;5.40;92.80
2042;DHT22;1026;51.460;7.252;2022-12-07T07:00:30;5.40;92.80
2042;DHT22;1026;51.460;7.252;2022-12-07T07:02:55;5.40;92.80
2042;DHT22;1026;51.460;7.252;2022-12-07T07:05:21;5.40;92.80
2042;DHT22;1026;51.460;7.252;2022-12-07T07:07:48;5.40;92.80
2042;DHT22;1026;51.460;7.252;2022-12-07T07:10:17;5.40;92.80
2042;DHT22;1026;51.460;7.252;2022-12-07T07:12:43;5.40;92.80
2042;DHT22;1026;51.460;7.252;2022-12-07T07:15:09;5.40;92.80
2042;DHT22;1026;51.460;7.252;2022-12-07T07:17:35;5.40;92.80
2042;DHT22;1026;51.460;7.252;2022-12-07T07:20:04;5.40;92.80
2042;DHT22;1026;51.460;7.252;2022-12-07T07:22:35;5.40;92.80
2042;DHT22;1026;51.460;7.252;2022-12-07T07:25:01;5.40;92.80
2042;DHT22;1026;51.460;7.252;2022-12-07T07:27:27;5.40;92.80
2042;DHT22;1026;51.460;7.252;2022-12-07T07:29:53;5.40;92.80
2042;DHT22;1026;51.460;7.252;2022-12-07T07:32:18;5.30;92.80
2042;DHT22;1026;51.460;7.252;2022-12-07T07:34:44;5.40;92.80
2042;DHT22;1026;51.460;7.252;2022-12-07T07:37:10;5.40;92.80
2042;DHT22;1026;51.460;7.252;2022-12-07T07:39:38;5.40;92.80
2042;DHT22;1026;51.460;7.252;2022-12-07T07:42:04;5.40;92.80
2042;DHT22;1026;51.460;7.252;2022-12-07T07:44:29;5.40;92.80
2042;DHT22;1026;51.460;7.252;2022-12-07T07:46:55;5.30;92.80
2042;DHT22;1026;51.460;7.252;2022-12-07T07:49:21;5.40;92.80
2042;DHT22;1026;51.460;7.252;2022-12-07T07:51:46;5.40;92.80
2042;DHT22;1026;51.460;7.252;2022-12-07T07:54:12;5.40;92.80
2042;DHT22;1026;51.460;7.252;2022-12-07T07:56:38;5.40;92.80
2042;DHT22;1026;51.460;7.252;2022-12-07T07:59:13;5.40;92.80
2042;DHT22;1026;51.460;7.252;2022-12-07T08:01:44;5.40;92.80
2042;DHT22;1026;51.460;7.252;2022-12-07T08:04:09;5.40;92.80
2042;DHT22;1026;51.460;7.252;2022-12-07T08:06:35;5.40;92.80
2042;DHT22;1026;51.460;7.252;2022-12-07T08:09:04;5.30;92.80
2042;DHT22;1026;51.460;7.252;2022-12-07T08:11:36;5.40;92.80
2042;DHT22;1026;51.460;7.252;2022-12-07T08:14:02;5.40;92.80
2042;DHT22;1026;51.460;7.252;2022-12-07T08:16:28;5.40;92.80
2042;DHT22;1026;51.460;7.252;2022-12-07T08:18:54;5.40;92.80
2042;DHT22;1026;51.460;7.252;2022-12-07T08:21:19;5.40;92.80
2042;DHT22;1026;51.460;7.252;2022-12-07T08:23:45;5.40;92.80
2042;DHT22;1026;51.460;7.252;2022-12-07T08:26:13;5.40;92.80
2042;DHT22;1026;51.460;7.252;2022-12-07T08:28:40;5.40;92.80
2042;DHT22;1026;51.460;7.252;2022-12-07T08:31:11;5.40;92.80
2042;DHT22;1026;51.460;7.252;2022-12-07T08:33:37;5.40;92.80
2042;DHT22;1026;51.460;7.252;2022-12-07T08:36:06;5.40;92.90
2042;DHT22;1026;51.460;7.252;2022-12-07T08:38:34;5.30;92.80
2042;DHT22;1026;51.460;7.252;2022-12-07T08:41:00;5.40;92.90
2042;DHT22;1026;51.460;7.252;2022-12-07T08:43:26;5.40;92.80
2042;DHT22;1026;51.460;7.252;2022-12-07T08:46:13;5.40;92.80
2042;DHT22;1026;51.460;7.252;2022-12-07T08:48:58;5.40;92.90
2042;DHT22;1026;51.460;7.252;2022-12-07T08:51:25;5.40;92.90
2042;DHT22;1026;51.460;7.252;2022-12-07T08:53:52;5.40;92.80
2042;DHT22;1026;51.460;7.252;2022-12-07T08:56:18;5.50;92.90
2042;DHT22;1026;51.460;7.252;2022-12-07T08:58:44;5.40;92.90
2042;DHT22;1026;51.460;7.252;2022-12-07T09:01:13;5.40;93.20
2042;DHT22;1026;51.460;7.252;2022-12-07T09:03:39;5.40;92.90
2042;DHT22;1026;51.460;7.252;2022-12-07T09:06:05;5.40;92.90
2042;DHT22;1026;51.460;7.252;2022-12-07T09:08:37;5.40;92.80
2042;DHT22;1026;51.460;7.252;2022-12-07T09:11:03;5.40;92.90
2042;DHT22;1026;51.460;7.252;2022-12-07T09:13:29;5.40;92.90
2042;DHT22;1026;51.460;7.252;2022-12-07T09:15:55;5.40;92.80
2042;DHT22;1026;51.460;7.252;2022-12-07T09:18:21;5.40;92.80
2042;DHT22;1026;51.460;7.252;2022-12-07T09:20:46;5.30;92.80
2042;DHT22;1026;51.460;7.252;2022-12-07T09:23:12;5.40;92.90
2042;DHT22;1026;51.460;7.252;2022-12-07T09:25:38;5.30;92.80
2042;DHT22;1026;51.460;7.252;2022-12-07T09:28:03;5.40;92.90
2042;DHT22;1026;51.460;7.252;2022-12-07T09:30:29;5.40;92.80
2042;DHT22;1026;51.460;7.252;2022-12-07T09:32:56;5.40;92.90
2042;DHT22;1026;51.460;7.252;2022-12-07T09:35:22;5.50;92.90
2042;DHT22;1026;51.460;7.252;2022-12-07T09:37:48;5.40;92.90
2042;DHT22;1026;51.460;7.252;2022-12-07T09:40:16;5.50;92.90
2042;DHT22;1026;51.460;7.252;2022-12-07T09:42:45;5.50;92.90
2042;DHT22;1026;51.460;7.252;2022-12-07T09:45:25;5.40;92.80
2042;DHT22;1026;51.460;7.252;2022-12-07T09:47:52;5.50;92.90
2042;DHT22;1026;51.460;7.252;2022-12-07T09:50:34;5.50;92.90
2042;DHT22;1026;51.460;7.252;2022-12-07T09:53:08;5.50;92.90
2042;DHT22;1026;51.460;7.252;2022-12-07T09:55:36;5.50;92.90
2042;DHT22;1026;51.460;7.252;2022-12-07T09:58:02;5.50;92.90
2042;DHT22;1026;51.460;7.252;2022-12-07T10:00:34;5.50;92.90
2042;DHT22;1026;51.460;7.252;2022-12-07T10:03:01;5.50;92.90
2042;DHT22;1026;51.460;7.252;2022-12-07T10:05:44;5.50;92.90
2042;DHT22;1026;51.460;7.252;2022-12-07T10:08:11;5.50;93.20
2042;DHT22;1026;51.460;7.252;2022-12-07T10:10:38;5.50;92.90
2042;DHT22;1026;51.460;7.252;2022-12-07T10:13:40;5.50;92.90
2042;DHT22;1026;51.460;7.252;2022-12-07T10:16:38;5.50;92.90
2042;DHT22;1026;51.460;7.252;2022-12-07T10:19:19;5.50;92.90
2042;DHT22;1026;51.460;7.252;2022-12-07T10:22:11;5.50;92.90
2042;DHT22;1026;51.460;7.252;2022-12-07T10:24:45;5.50;92.90
2042;DHT22;1026;51.460;7.252;2022-12-07T10:27:19;5.50;92.90
2042;DHT22;1026;51.460;7.252;2022-12-07T10:29:49;5.50;92.90
2042;DHT22;1026;51.460;7.252;2022-12-07T10:34:41;5.50;92.90
2042;DHT22;1026;51.460;7.252;2022-12-07T10:37:18;5.50;92.90
2042;DHT22;1026;51.460;7.252;2022-12-07T10:39:55;5.50;92.90
2042;DHT22;1026;51.460;7.252;2022-12-07T10:42:24;5.50;92.90
2042;DHT22;1026;51.460;7.252;2022-12-07T10:45:15;5.60;92.90
2042;DHT22;1026;51.460;7.252;2022-12-07T10:47:57;5.60;92.90
2042;DHT22;1026;51.460;7.252;2022-12-07T10:56:30;5.60;92.90
2042;DHT22;1026;51.460;7.252;2022-12-07T11:01:50;5.60;92.90
2042;DHT22;1026;51.460;7.252;2022-12-07T11:10:02;5.60;92.90
2042;DHT22;1026;51.460;7.252;2022-12-07T11:15:24;5.50;92.80
2042;DHT22;1026;51.460;7.252;2022-12-07T11:18:11;5.70;92.90
2042;DHT22;1026;51.460;7.252;2022-12-07T11:20:43;5.70;92.90
2042;DHT22;1026;51.460;7.252;2022-12-07T11:23:13;5.60;92.80
2042;DHT22;1026;51.460;7.252;2022-12-07T11:28:47;5.70;92.90
2042;DHT22;1026;51.460;7.252;2022-12-07T11:33:47;5.70;92.90
2042;DHT22;1026;51.460;7.252;2022-12-07T11:39:01;5.70;92.80
2042;DHT22;1026;51.460;7.252;2022-12-07T11:41:33;5.70;93.20
2042;DHT22;1026;51.460;7.252;2022-12-07T11:44:08;5.70;92.90
2042;DHT22;1026;51.460;7.252;2022-12-07T11:46:57;5.60;92.80
2042;DHT22;1026;51.460;7.252;2022-12-07T11:49:42;5.70;92.90
2042;DHT22;1026;51.460;7.252;2022-12-07T11:52:27;5.70;92.80
2042;DHT22;1026;51.460;7.252;2022-12-07T11:54:57;5.60;92.80
2042;DHT22;1026;51.460;7.252;2022-12-07T11:57:32;5.80;92.80
2042;DHT22;1026;51.460;7.252;2022-12-07T12:00:03;5.80;92.80
2042;DHT22;1026;51.460;7.252;2022-12-07T12:02:43;5.80;92.80
2042;DHT22;1026;51.460;7.252;2022-12-07T12:05:21;5.80;92.80
2042;DHT22;1026;51.460;7.252;2022-12-07T12:07:58;5.80;92.80
2042;DHT22;1026;51.460;7.252;2022-12-07T12:10:30;5.80;92.80
2042;DHT22;1026;51.460;7.252;2022-12-07T12:13:14;5.80;92.80
2042;DHT22;1026;51.460;7.252;2022-12-07T12:21:07;5.80;92.80
2042;DHT22;1026;51.460;7.252;2022-12-07T12:26:27;5.80;92.70
2042;DHT22;1026;51.460;7.252;2022-12-07T12:28:58;5.90;92.80
2042;DHT22;1026;51.460;7.252;2022-12-07T12:33:55;5.90;92.80
2042;DHT22;1026;51.460;7.252;2022-12-07T12:41:55;5.90;92.70
2042;DHT22;1026;51.460;7.252;2022-12-07T12:47:03;5.90;92.70
2042;DHT22;1026;51.460;7.252;2022-12-07T12:49:38;5.90;92.70
2042;DHT22;1026;51.460;7.252;2022-12-07T12:52:45;5.90;92.70
2042;DHT22;1026;51.460;7.252;2022-12-07T12:55:15;5.90;92.70
2042;DHT22;1026;51.460;7.252;2022-12-07T12:57:46;5.90;92.70
2042;DHT22;1026;51.460;7.252;2022-12-07T13:00:18;5.90;92.70
2042;DHT22;1026;51.460;7.252;2022-12-07T13:02:54;5.90;92.70
2042;DHT22;1026;51.460;7.252;2022-12-07T13:05:22;5.90;92.70
2042;DHT22;1026;51.460;7.252;2022-12-07T13:07:54;5.90;92.70
2042;DHT22;1026;51.460;7.252;2022-12-07T13:10:33;5.90;92.70
2042;DHT22;1026;51.460;7.252;2022-12-07T13:15:46;6.00;92.70
2042;DHT22;1026;51.460;7.252;2022-12-07T13:23:36;6.00;92.70
2042;DHT22;1026;51.460;7.252;2022-12-07T13:29:16;6.00;92.70
2042;DHT22;1026;51.460;7.252;2022-12-07T13:31:50;6.00;92.70
2042;DHT22;1026;51.460;7.252;2022-12-07T13:34:36;6.00;92.70
2042;DHT22;1026;51.460;7.252;2022-12-07T13:37:21;6.00;92.70
2042;DHT22;1026;51.460;7.252;2022-12-07T13:39:55;6.00;92.70
2042;DHT22;1026;51.460;7.252;2022-12-07T13:42:27;6.00;92.70
2042;DHT22;1026;51.460;7.252;2022-12-07T13:44:54;6.00;92.70
2042;DHT22;1026;51.460;7.252;2022-12-07T13:47:26;6.00;92.70
2042;DHT22;1026;51.460;7.252;2022-12-07T13:49:56;6.00;92.70
2042;DHT22;1026;51.460;7.252;2022-12-07T13:52:26;6.00;92.70
2042;DHT22;1026;51.460;7.252;2022-12-07T13:57:25;6.10;92.70
2042;DHT22;1026;51.460;7.252;2022-12-07T13:59:51;6.10;92.70
2042;DHT22;1026;51.460;7.252;2022-12-07T14:04:49;6.10;92.70
2042;DHT22;1026;51.460;7.252;2022-12-07T14:07:27;6.10;92.70
2042;DHT22;1026;51.460;7.252;2022-12-07T14:09:58;6.10;92.70
2042;DHT22;1026;51.460;7.252;2022-12-07T14:12:25;6.10;92.70
2042;DHT22;1026;51.460;7.252;2022-12-07T14:14:52;6.10;92.70
2042;DHT22;1026;51.460;7.252;2022-12-07T14:17:20;6.10;92.70
2042;DHT22;1026;51.460;7.252;2022-12-07T14:19:50;6.10;92.80
2042;DHT22;1026;51.460;7.252;2022-12-07T14:22:37;6.10;92.80
2042;DHT22;1026;51.460;7.252;2022-12-07T14:27:33;6.10;92.70
2042;DHT22;1026;51.460;7.252;2022-12-07T14:30:00;6.10;92.70
2042;DHT22;1026;51.460;7.252;2022-12-07T14:32:28;6.10;92.70
2042;DHT22;1026;51.460;7.252;2022-12-07T14:34:57;6.10;92.70
2042;DHT22;1026;51.460;7.252;2022-12-07T14:37:24;6.10;92.70
2042;DHT22;1026;51.460;7.252;2022-12-07T14:39:50;6.10;92.70
2042;DHT22;1026;51.460;7.252;2022-12-07T14:42:16;6.00;92.60
2042;DHT22;1026;51.460;7.252;2022-12-07T14:44:42;6.10;92.70
2042;DHT22;1026;51.460;7.252;2022-12-07T14:47:10;6.10;92.70
2042;DHT22;1026;51.460;7.252;2022-12-07T14:49:36;6.10;92.70
2042;DHT22;1026;51.460;7.252;2022-12-07T14:52:01;6.10;92.70
2042;DHT22;1026;51.460;7.252;2022-12-07T14:54:31;6.10;92.70
2042;DHT22;1026;51.460;7.252;2022-12-07T14:56:57;6.10;92.70
2042;DHT22;1026;51.460;7.252;2022-12-07T14:59:23;6.00;92.70
2042;DHT22;1026;51.460;7.252;2022-12-07T15:01:49;6.00;92.70
2042;DHT22;1026;51.460;7.252;2022-12-07T15:04:14;6.00;93.00
2042;DHT22;1026;51.460;7.252;2022-12-07T15:06:41;6.00;92.80
2042;DHT22;1026;51.460;7.252;2022-12-07T15:09:10;6.10;92.80
2042;DHT22;1026;51.460;7.252;2022-12-07T15:11:36;6.00;92.80
2042;DHT22;1026;51.460;7.252;2022-12-07T15:14:02;6.00;92.80
2042;DHT22;1026;51.460;7.252;2022-12-07T15:16:41;6.00;92.80
2042;DHT22;1026;51.460;7.252;2022-12-07T15:19:18;6.00;92.80
2042;DHT22;1026;51.460;7.252;2022-12-07T15:21:45;6.00;92.70
2042;DHT22;1026;51.460;7.252;2022-12-07T15:24:12;6.00;92.70
2042;DHT22;1026;51.460;7.252;2022-12-07T15:26:39;5.90;92.70
2042;DHT22;1026;51.460;7.252;2022-12-07T15:29:05;6.00;92.70
2042;DHT22;1026;51.460;7.252;2022-12-07T15:31:32;6.00;92.70
2042;DHT22;1026;51.460;7.252;2022-12-07T15:33:58;6.00;92.70
2042;DHT22;1026;51.460;7.252;2022-12-07T15:36:27;6.00;92.80
2042;DHT22;1026;51.460;7.252;2022-12-07T15:38:53;6.10;92.80
2042;DHT22;1026;51.460;7.252;2022-12-07T15:41:19;6.00;92.80
2042;DHT22;1026;51.460;7.252;2022-12-07T15:43:45;6.00;92.80
2042;DHT22;1026;51.460;7.252;2022-12-07T15:46:32;5.90;92.80
2042;DHT22;1026;51.460;7.252;2022-12-07T15:48:59;6.00;92.80
2042;DHT22;1026;51.460;7.252;2022-12-07T15:51:24;5.80;92.70
2042;DHT22;1026;51.460;7.252;2022-12-07T15:53:50;5.90;92.80
2042;DHT22;1026;51.460;7.252;2022-12-07T15:56:16;5.90;92.80
2042;DHT22;1026;51.460;7.252;2022-12-07T15:58:42;5.90;92.80
2042;DHT22;1026;51.460;7.252;2022-12-07T16:01:17;5.90;92.80
2042;DHT22;1026;51.460;7.252;2022-12-07T16:03:44;5.90;92.90
2042;DHT22;1026;51.460;7.252;2022-12-07T16:06:10;5.90;92.90
2042;DHT22;1026;51.460;7.252;2022-12-07T16:08:36;5.90;92.90
2042;DHT22;1026;51.460;7.252;2022-12-07T16:11:06;5.90;92.90
2042;DHT22;1026;51.460;7.252;2022-12-07T16:13:32;5.90;92.90
2042;DHT22;1026;51.460;7.252;2022-12-07T16:16:01;5.90;92.90
2042;DHT22;1026;51.460;7.252;2022-12-07T16:18:27;5.80;92.90
2042;DHT22;1026;51.460;7.252;2022-12-07T16:20:53;5.90;92.90
2042;DHT22;1026;51.460;7.252;2022-12-07T16:23:18;5.90;92.90
2042;DHT22;1026;51.460;7.252;2022-12-07T16:25:44;5.90;92.90
2042;DHT22;1026;51.460;7.252;2022-12-07T16:28:09;5.90;92.90
2042;DHT22;1026;51.460;7.252;2022-12-07T16:30:35;5.90;92.90
2042;DHT22;1026;51.460;7.252;2022-12-07T16:33:01;5.80;92.90
2042;DHT22;1026;51.460;7.252;2022-12-07T16:35:27;5.80;92.90
2042;DHT22;1026;51.460;7.252;2022-12-07T16:37:52;5.80;92.90
2042;DHT22;1026;51.460;7.252;2022-12-07T16:40:18;5.80;92.90
2042;DHT22;1026;51.460;7.252;2022-12-07T16:42:44;5.80;92.90
2042;DHT22;1026;51.460;7.252;2022-12-07T16:45:09;5.80;92.90
2042;DHT22;1026;51.460;7.252;2022-12-07T16:47:38;5.80;92.90
2042;DHT22;1026;51.460;7.252;2022-12-07T16:50:04;5.80;92.90
2042;DHT22;1026;51.460;7.252;2022-12-07T16:52:30;5.70;92.90
2042;DHT22;1026;51.460;7.252;2022-12-07T16:54:55;5.80;92.90
2042;DHT22;1026;51.460;7.252;2022-12-07T16:57:21;5.80;92.90
2042;DHT22;1026;51.460;7.252;2022-12-07T16:59:47;5.70;92.90
2042;DHT22;1026;51.460;7.252;2022-12-07T17:02:12;5.80;92.90
2042;DHT22;1026;51.460;7.252;2022-12-07T17:04:38;5.80;92.90
2042;DHT22;1026;51.460;7.252;2022-12-07T17:07:05;5.70;92.90
2042;DHT22;1026;51.460;7.252;2022-12-07T17:09:31;5.80;92.90
2042;DHT22;1026;51.460;7.252;2022-12-07T17:11:57;5.80;92.90
2042;DHT22;1026;51.460;7.252;2022-12-07T17:14:23;5.80;92.90
2042;DHT22;1026;51.460;7.252;2022-12-07T17:17:04;5.80;92.90
2042;DHT22;1026;51.460;7.252;2022-12-07T17:19:29;5.80;93.00
2042;DHT22;1026;51.460;7.252;2022-12-07T17:21:55;5.70;92.90
2042;DHT22;1026;51.460;7.252;2022-12-07T17:24:21;5.70;93.00
2042;DHT22;1026;51.460;7.252;2022-12-07T17:26:47;5.80;93.30
2042;DHT22;1026;51.460;7.252;2022-12-07T17:29:15;5.80;93.00
2042;DHT22;1026;51.460;7.252;2022-12-07T17:31:41;5.80;93.00
2042;DHT22;1026;51.460;7.252;2022-12-07T17:34:14;5.80;93.00
2042;DHT22;1026;51.460;7.252;2022-12-07T17:36:40;5.80;93.00
2042;DHT22;1026;51.460;7.252;2022-12-07T17:39:08;5.80;93.00
2042;DHT22;1026;51.460;7.252;2022-12-07T17:41:35;5.70;92.90
2042;DHT22;1026;51.460;7.252;2022-12-07T17:44:17;5.80;93.00
2042;DHT22;1026;51.460;7.252;2022-12-07T17:46:45;5.70;92.90
2042;DHT22;1026;51.460;7.252;2022-12-07T17:49:11;5.80;93.00
2042;DHT22;1026;51.460;7.252;2022-12-07T17:51:37;5.80;93.00
2042;DHT22;1026;51.460;7.252;2022-12-07T17:54:18;5.80;93.00
2042;DHT22;1026;51.460;7.252;2022-12-07T17:56:44;5.80;93.00
2042;DHT22;1026;51.460;7.252;2022-12-07T17:59:10;5.80;93.00